createdAt,value
2022-10-22T00:01:48.755Z,98937.91
2022-10-22T00:04:15.611Z,98942.84
2022-10-22T00:06:44.934Z,98945.91
2022-10-22T00:09:12.839Z,98944.31
2022-10-22T00:11:39.951Z,98928.94
2022-10-22T00:14:06.849Z,98952.31
2022-10-22T00:16:33.742Z,98944.47
2022-10-22T00:19:00.589Z,98951.03
2022-10-22T00:21:29.187Z,98945.13
2022-10-22T00:23:56.295Z,98933.25
2022-10-22T00:26:23.244Z,98949.28
2022-10-22T00:28:50.191Z,98932.63
2022-10-22T00:31:19.168Z,98943.34
2022-10-22T00:33:47.326Z,98939.03
2022-10-22T00:36:15.314Z,98942.88
2022-10-22T00:38:42.431Z,98942.88
2022-10-22T00:41:09.303Z,98942.06
2022-10-22T00:43:53.465Z,98915.81
2022-10-22T00:46:20.466Z,98952.50
2022-10-22T00:48:47.281Z,98939.97
2022-10-22T00:51:14.368Z,98932.44
2022-10-22T00:53:49.133Z,98941.41
2022-10-22T00:56:16.042Z,98923.63
2022-10-22T00:58:45.547Z,98934.22
2022-10-22T01:01:14.707Z,98922.84
2022-10-22T01:03:41.671Z,98925.91
2022-10-22T01:06:10.043Z,98935.50
2022-10-22T01:08:57.194Z,98926.53
2022-10-22T01:11:47.963Z,98927.97
2022-10-22T01:14:59.759Z,98939.19
2022-10-22T01:17:51.163Z,98938.22
2022-10-22T01:20:54.789Z,98941.25
2022-10-22T01:23:59.422Z,98944.16
2022-10-22T01:27:00.423Z,98948.78
2022-10-22T01:29:54.436Z,98942.06
2022-10-22T01:32:23.056Z,98944.28
2022-10-22T01:34:54.031Z,98938.84
2022-10-22T01:37:21.845Z,98920.94
2022-10-22T01:39:48.690Z,98921.22
2022-10-22T01:42:15.752Z,98916.13
2022-10-22T01:44:42.683Z,98914.50
2022-10-22T01:47:22.050Z,98896.59
2022-10-22T01:50:24.061Z,98891.44
2022-10-22T01:53:12.698Z,98904.09
2022-10-22T01:55:42.143Z,98902.31
2022-10-22T01:58:46.596Z,98910.47
2022-10-22T02:01:26.447Z,98908.41
2022-10-22T02:04:20.470Z,98890.63
2022-10-22T02:06:47.711Z,98907.44
2022-10-22T02:09:15.624Z,98895.78
2022-10-22T02:11:42.546Z,98892.56
2022-10-22T02:14:09.362Z,98883.59
2022-10-22T02:16:38.807Z,98900.22
2022-10-22T02:19:26.579Z,98908.22
2022-10-22T02:21:53.720Z,98906.63
2022-10-22T02:24:20.609Z,98897.50
2022-10-22T02:26:50.279Z,98899.22
2022-10-22T02:29:28.136Z,98921.38
2022-10-22T02:31:55.953Z,98905.00
2022-10-22T02:34:24.173Z,98915.72
2022-10-22T02:36:51.016Z,98913.19
2022-10-22T02:39:18.048Z,98905.47
2022-10-22T02:41:45.023Z,98905.81
2022-10-22T02:44:11.952Z,98902.94
2022-10-22T02:46:39.547Z,98893.50
2022-10-22T02:49:06.533Z,98858.53
2022-10-22T02:51:33.359Z,98889.97
2022-10-22T02:54:00.217Z,98901.66
2022-10-22T02:56:27.128Z,98904.47
2022-10-22T02:58:53.946Z,98915.03
2022-10-22T03:01:20.890Z,98902.88
2022-10-22T03:03:47.720Z,98893.09
2022-10-22T03:06:14.702Z,98884.47
2022-10-22T03:08:41.787Z,98878.53
2022-10-22T03:11:08.719Z,98879.97
2022-10-22T03:13:35.516Z,98881.91
2022-10-22T03:16:02.503Z,98888.44
2022-10-22T03:18:29.336Z,98883.97
2022-10-22T03:21:31.043Z,98895.78
2022-10-22T03:23:58.053Z,98899.16
2022-10-22T03:26:24.915Z,98884.75
2022-10-22T03:28:51.750Z,98857.50
2022-10-22T03:31:18.653Z,98878.97
2022-10-22T03:33:45.509Z,98887.31
2022-10-22T03:36:12.361Z,98893.03
2022-10-22T03:38:39.243Z,98896.88
2022-10-22T03:41:06.068Z,98902.97
2022-10-22T03:43:34.633Z,98913.81
2022-10-22T03:46:01.450Z,98915.75
2022-10-22T03:48:28.300Z,98916.06
2022-10-22T03:50:55.194Z,98910.16
2022-10-22T03:53:22.020Z,98909.66
2022-10-22T03:55:48.967Z,98904.50
2022-10-22T03:58:15.881Z,98892.03
2022-10-22T04:00:42.739Z,98892.38
2022-10-22T04:03:09.553Z,98883.72
2022-10-22T04:05:36.397Z,98900.03
2022-10-22T04:08:03.287Z,98892.97
2022-10-22T04:10:30.136Z,98895.22
2022-10-22T04:12:57.182Z,98896.31
2022-10-22T04:15:26.805Z,98896.66
2022-10-22T04:17:53.839Z,98896.16
2022-10-22T04:20:20.690Z,98873.75
2022-10-22T04:22:47.509Z,98892.13
2022-10-22T04:25:14.348Z,98894.06
2022-10-22T04:27:41.335Z,98892.47
2022-10-22T04:30:08.912Z,98904.13
2022-10-22T04:32:35.804Z,98908.78
2022-10-22T04:35:02.760Z,98912.63
2022-10-22T04:37:29.661Z,98918.34
2022-10-22T04:39:58.163Z,98911.31
2022-10-22T04:42:25.329Z,98906.97
2022-10-22T04:44:52.186Z,98902.97
2022-10-22T04:47:19.013Z,98911.44
2022-10-22T04:49:45.927Z,98913.66
2022-10-22T04:52:12.848Z,98909.34
2022-10-22T04:54:39.644Z,98896.06
2022-10-22T04:57:06.482Z,98887.13
2022-10-22T04:59:33.347Z,98878.50
2022-10-22T05:02:00.195Z,98863.28
2022-10-22T05:04:27.038Z,98858.50
2022-10-22T05:06:53.888Z,98846.03
2022-10-22T05:09:20.822Z,98844.41
2022-10-22T05:11:49.886Z,98854.81
2022-10-22T05:14:23.886Z,98869.47
2022-10-22T05:16:51.077Z,98852.00
2022-10-22T05:19:20.905Z,98874.75
2022-10-22T05:21:47.776Z,98866.09
2022-10-22T05:24:14.771Z,98887.03
2022-10-22T05:26:41.586Z,98881.13
2022-10-22T05:29:08.441Z,98879.22
2022-10-22T05:31:35.446Z,98876.00
2022-10-22T05:34:02.388Z,98878.19
2022-10-22T05:36:29.248Z,98880.91
2022-10-22T05:38:57.032Z,98883.16
2022-10-22T05:41:24.708Z,98885.09
2022-10-22T05:43:51.613Z,98870.50
2022-10-22T05:46:22.914Z,98885.72
2022-10-22T05:49:00.873Z,98889.50
2022-10-22T05:51:29.277Z,98886.28
2022-10-22T05:54:01.435Z,98883.09
2022-10-22T05:56:29.016Z,98884.19
2022-10-22T05:58:56.009Z,98891.38
2022-10-22T06:01:24.658Z,98911.69
2022-10-22T06:03:58.991Z,98903.91
2022-10-22T06:06:39.745Z,98916.94
2022-10-22T06:09:10.140Z,98919.16
2022-10-22T06:11:37.051Z,98888.00
2022-10-22T06:14:04.112Z,98891.53
2022-10-22T06:16:31.508Z,98917.03
2022-10-22T06:19:05.211Z,98933.03
2022-10-22T06:21:32.445Z,98923.78
2022-10-22T06:24:00.307Z,98908.28
2022-10-22T06:26:27.159Z,98895.84
2022-10-22T06:28:56.041Z,98903.66
2022-10-22T06:31:23.454Z,98904.44
2022-10-22T06:33:50.324Z,98918.84
2022-10-22T06:36:19.150Z,98929.72
2022-10-22T06:38:45.977Z,98916.44
2022-10-22T06:41:14.502Z,98911.78
2022-10-22T06:43:42.275Z,98900.13
2022-10-22T06:46:09.900Z,98907.50
2022-10-22T06:48:38.035Z,98911.00
2022-10-22T06:51:06.670Z,98925.38
2022-10-22T06:53:33.510Z,98934.63
2022-10-22T06:56:08.138Z,98923.59
2022-10-22T06:58:34.985Z,98918.97
2022-10-22T07:01:09.460Z,98928.59
2022-10-22T07:03:36.702Z,98933.22
2022-10-22T07:06:04.643Z,98940.56
2022-10-22T07:08:31.577Z,98949.50
2022-10-22T07:11:08.160Z,98949.97
2022-10-22T07:13:35.608Z,98951.91
2022-10-22T07:16:02.888Z,98944.25
2022-10-22T07:18:29.915Z,98929.03
2022-10-22T07:20:56.767Z,98938.81
2022-10-22T07:23:23.655Z,98934.03
2022-10-22T07:25:50.514Z,98935.16
2022-10-22T07:28:17.520Z,98922.09
2022-10-22T07:30:44.341Z,98931.03
2022-10-22T07:33:11.247Z,98915.50
2022-10-22T07:35:39.462Z,98940.19
2022-10-22T07:38:07.456Z,98923.03
2022-10-22T07:40:34.303Z,98947.72
2022-10-22T07:43:01.421Z,98944.50
2022-10-22T07:45:28.256Z,98968.31
2022-10-22T07:47:55.086Z,98991.66
2022-10-22T07:50:22.229Z,98979.38
2022-10-22T07:52:49.122Z,98969.63
2022-10-22T07:55:16.007Z,98986.72
2022-10-22T07:57:43.003Z,98992.66
2022-10-22T08:00:10.321Z,99000.47
2022-10-22T08:02:40.199Z,99009.47
2022-10-22T08:05:07.844Z,99015.69
2022-10-22T08:07:34.670Z,98998.53
2022-10-22T08:10:01.475Z,99015.88
2022-10-22T08:12:28.532Z,99013.16
2022-10-22T08:14:55.457Z,99012.81
2022-10-22T08:17:22.278Z,99000.88
2022-10-22T08:19:49.141Z,98994.31
2022-10-22T08:22:16.047Z,98982.31
2022-10-22T08:24:42.894Z,98983.94
2022-10-22T08:27:09.894Z,98979.81
2022-10-22T08:29:36.708Z,98980.63
2022-10-22T08:32:03.585Z,98991.97
2022-10-22T08:34:31.578Z,98983.50
2022-10-22T08:36:58.437Z,98984.31
2022-10-22T08:39:26.063Z,98970.41
2022-10-22T08:42:09.444Z,98979.03
2022-10-22T08:45:17.814Z,98979.88
2022-10-22T08:47:44.621Z,98994.25
2022-10-22T08:50:12.795Z,98979.53
2022-10-22T08:52:40.622Z,98980.84
2022-10-22T08:55:12.379Z,98969.00
2022-10-22T08:57:51.391Z,98984.06
2022-10-22T09:00:34.263Z,98987.25
2022-10-22T09:03:27.756Z,98988.06
2022-10-22T09:06:09.379Z,98982.63
2022-10-22T09:08:36.719Z,98985.03
2022-10-22T09:11:12.623Z,98982.03
2022-10-22T09:13:43.547Z,98979.59
2022-10-22T09:16:48.075Z,98988.44
2022-10-22T09:19:28.620Z,98991.16
2022-10-22T09:22:10.539Z,99005.53
2022-10-22T09:24:39.086Z,99010.34
2022-10-22T09:27:29.508Z,98974.28
2022-10-22T09:29:56.401Z,98996.47
2022-10-22T09:32:23.248Z,99005.91
2022-10-22T09:34:50.462Z,99003.66
2022-10-22T09:37:18.706Z,99008.78
2022-10-22T09:39:47.591Z,98983.28
2022-10-22T09:42:15.987Z,99008.47
2022-10-22T09:44:46.232Z,99011.69
2022-10-22T09:47:42.582Z,99007.84
2022-10-22T09:50:22.874Z,99019.22
2022-10-22T09:53:18.558Z,99019.22
2022-10-22T09:55:49.767Z,99020.34
2022-10-22T09:58:17.445Z,99013.78
2022-10-22T10:00:46.197Z,99015.88
2022-10-22T10:03:18.249Z,99018.31
2022-10-22T10:05:47.471Z,99010.44
2022-10-22T10:08:15.647Z,99002.78
2022-10-22T10:11:01.373Z,99013.66
2022-10-22T10:13:46.362Z,99014.13
2022-10-22T10:16:37.381Z,99009.53
2022-10-22T10:19:52.245Z,99017.34
2022-10-22T10:22:38.181Z,99016.84
2022-10-22T10:25:39.775Z,99005.66
2022-10-22T10:28:26.917Z,99005.66
2022-10-22T10:31:03.272Z,99006.78
2022-10-22T10:33:51.781Z,99005.66
2022-10-22T10:36:48.861Z,99005.34
2022-10-22T10:39:26.842Z,98989.38
2022-10-22T10:42:03.649Z,98983.75
2022-10-22T10:44:48.652Z,98978.47
2022-10-22T10:47:26.265Z,98971.75
2022-10-22T10:49:54.710Z,98968.53
2022-10-22T10:52:21.612Z,98972.56
2022-10-22T10:55:22.547Z,98978.78
2022-10-22T10:58:20.472Z,98978.78
2022-10-22T11:00:58.204Z,98977.19
2022-10-22T11:03:55.563Z,98976.38
2022-10-22T11:06:25.362Z,98974.81
2022-10-22T11:09:21.982Z,98972.09
2022-10-22T11:12:00.140Z,98962.47
2022-10-22T11:14:30.169Z,98967.91
2022-10-22T11:17:03.770Z,98971.13
2022-10-22T11:19:50.355Z,98963.72
2022-10-22T11:22:19.374Z,98976.72
2022-10-22T11:24:57.923Z,98983.78
2022-10-22T11:27:27.723Z,98977.22
2022-10-22T11:29:58.741Z,98976.44
2022-10-22T11:32:26.506Z,98978.53
2022-10-22T11:34:56.494Z,98972.75
2022-10-22T11:37:24.587Z,98975.81
2022-10-22T11:39:53.739Z,98970.38
2022-10-22T11:42:43.396Z,98985.56
2022-10-22T11:45:16.176Z,98991.00
2022-10-22T11:48:10.509Z,98986.06
2022-10-22T11:50:52.869Z,98960.09
2022-10-22T11:53:25.435Z,98976.31
2022-10-22T11:56:03.564Z,98968.78
2022-10-22T11:58:43.762Z,98981.75
2022-10-22T12:01:10.611Z,98977.41
2022-10-22T12:03:44.920Z,98977.91
2022-10-22T12:06:15.794Z,98981.75
2022-10-22T12:08:48.721Z,98973.25
2022-10-22T12:11:40.571Z,98980.31
2022-10-22T12:14:16.280Z,98978.69
2022-10-22T12:16:57.355Z,98974.06
2022-10-22T12:19:40.783Z,98963.16
2022-10-22T12:22:07.594Z,98958.56
2022-10-22T12:24:40.545Z,98934.66
2022-10-22T12:27:27.545Z,98913.69
2022-10-22T12:29:58.657Z,98953.63
2022-10-22T12:32:38.686Z,98935.66
2022-10-22T12:35:07.379Z,98960.69
2022-10-22T12:37:36.595Z,98955.25
2022-10-22T12:40:19.339Z,98958.75
2022-10-22T12:42:59.724Z,98953.78
2022-10-22T12:45:28.375Z,98952.19
2022-10-22T12:48:19.829Z,98947.25
2022-10-22T12:50:53.653Z,98933.78
2022-10-22T12:53:32.075Z,98944.03
2022-10-22T12:56:12.016Z,98949.16
2022-10-22T12:58:41.167Z,98950.25
2022-10-22T13:01:09.835Z,98944.03
2022-10-22T13:03:40.680Z,98942.91
2022-10-22T13:06:19.930Z,98946.13
2022-10-22T13:09:03.051Z,98953.16
2022-10-22T13:11:41.160Z,98958.28
2022-10-22T13:14:27.833Z,98948.22
2022-10-22T13:17:19.027Z,98940.84
2022-10-22T13:19:49.840Z,98959.09
2022-10-22T13:22:29.097Z,98956.88
2022-10-22T13:24:59.990Z,98955.25
2022-10-22T13:27:27.993Z,98953.81
2022-10-22T13:29:55.621Z,98953.34
2022-10-22T13:32:30.106Z,98958.78
2022-10-22T13:35:01.257Z,98963.59
2022-10-22T13:37:28.780Z,98960.88
2022-10-22T13:39:55.669Z,98957.81
2022-10-22T13:42:22.502Z,98960.53
2022-10-22T13:44:49.379Z,98961.66
2022-10-22T13:47:29.448Z,98959.44
2022-10-22T13:50:01.039Z,98963.25
2022-10-22T13:52:39.326Z,98960.53
2022-10-22T13:55:25.567Z,98968.69
2022-10-22T13:58:04.204Z,98967.75
2022-10-22T14:00:31.171Z,98974.47
2022-10-22T14:02:58.373Z,98972.06
2022-10-22T14:05:25.386Z,98961.66
2022-10-22T14:07:52.260Z,98974.13
2022-10-22T14:10:24.082Z,98970.31
2022-10-22T14:12:53.447Z,98969.50
2022-10-22T14:15:24.118Z,98965.34
2022-10-22T14:17:58.160Z,98945.66
2022-10-22T14:20:29.233Z,98953.69
2022-10-22T14:22:56.092Z,98963.75
2022-10-22T14:25:24.209Z,98962.16
2022-10-22T14:27:51.223Z,98955.72
2022-10-22T14:30:23.453Z,98962.47
2022-10-22T14:32:50.563Z,98959.75
2022-10-22T14:35:20.466Z,98963.25
2022-10-22T14:37:47.351Z,98948.06
2022-10-22T14:40:16.025Z,98947.28
2022-10-22T14:42:44.123Z,98954.59
2022-10-22T14:45:21.867Z,98966.31
2022-10-22T14:47:49.505Z,98966.63
2022-10-22T14:50:16.655Z,98967.75
2022-10-22T14:52:43.892Z,98970.47
2022-10-22T14:55:11.943Z,98966.94
2022-10-22T14:57:41.824Z,98974.28
2022-10-22T15:00:11.369Z,98975.09
2022-10-22T15:02:38.331Z,98971.09
2022-10-22T15:05:05.769Z,98986.00
2022-10-22T15:07:32.613Z,98986.78
2022-10-22T15:09:59.466Z,98984.06
2022-10-22T15:12:26.339Z,98985.66
2022-10-22T15:14:53.238Z,98992.69
2022-10-22T15:17:20.088Z,98986.44
2022-10-22T15:19:46.885Z,98991.09
2022-10-22T15:22:14.092Z,98986.00
2022-10-22T15:24:44.626Z,98994.44
2022-10-22T15:27:13.799Z,99000.22
2022-10-22T15:29:41.046Z,98999.09
2022-10-22T15:32:10.411Z,98999.88
2022-10-22T15:34:37.915Z,98983.63
2022-10-22T15:37:06.516Z,99005.66
2022-10-22T15:39:33.355Z,99003.22
2022-10-22T15:42:00.317Z,99017.63
2022-10-22T15:44:30.883Z,99002.66
2022-10-22T15:46:58.100Z,99018.75
2022-10-22T15:49:25.882Z,99014.75
2022-10-22T15:51:52.727Z,99017.47
2022-10-22T15:54:21.834Z,99020.19
2022-10-22T15:56:48.846Z,99020.19
2022-10-22T15:59:16.142Z,99013.94
2022-10-22T16:01:43.195Z,99026.75
2022-10-22T16:04:10.113Z,99015.88
2022-10-22T16:06:43.460Z,99012.03
2022-10-22T16:09:12.214Z,99013.16
2022-10-22T16:11:39.539Z,98995.47
2022-10-22T16:14:06.513Z,99009.84
2022-10-22T16:16:34.682Z,99029.47
2022-10-22T16:19:01.541Z,99043.06
2022-10-22T16:21:28.379Z,99051.22
2022-10-22T16:23:55.326Z,99058.59
2022-10-22T16:26:22.186Z,99065.91
2022-10-22T16:28:49.042Z,99060.91
2022-10-22T16:31:17.229Z,99079.84
2022-10-22T16:33:47.748Z,99076.31
2022-10-22T16:36:18.205Z,99074.66
2022-10-22T16:38:45.776Z,99080.09
2022-10-22T16:41:14.189Z,99086.66
2022-10-22T16:43:42.077Z,99085.06
2022-10-22T16:46:09.140Z,99088.59
2022-10-22T16:48:37.842Z,99088.88
2022-10-22T16:51:05.704Z,99065.94
2022-10-22T16:53:32.506Z,99094.94
2022-10-22T16:55:59.311Z,99095.75
2022-10-22T16:58:26.166Z,99081.19
2022-10-22T17:00:53.012Z,99087.91
2022-10-22T17:03:19.830Z,99107.75
2022-10-22T17:05:46.682Z,99108.53
2022-10-22T17:08:14.505Z,99117.81
2022-10-22T17:10:41.587Z,99130.81
2022-10-22T17:13:08.442Z,99136.25
2022-10-22T17:15:36.202Z,99138.97
2022-10-22T17:18:04.100Z,99153.34
2022-10-22T17:20:30.969Z,99156.88
2022-10-22T17:22:57.840Z,99152.56
2022-10-22T17:25:32.900Z,99147.91
2022-10-22T17:27:59.756Z,99150.97
2022-10-22T17:30:28.356Z,99153.69
2022-10-22T17:32:55.209Z,99141.19
2022-10-22T17:35:22.117Z,99141.97
2022-10-22T17:37:49.076Z,99142.31
2022-10-22T17:40:16.025Z,99141.50
2022-10-22T17:42:43.168Z,99144.16
2022-10-22T17:45:10.109Z,99159.75
2022-10-22T17:47:37.089Z,99164.34
2022-10-22T17:50:04.131Z,99157.31
2022-10-22T17:52:31.169Z,99158.44
2022-10-22T17:54:58.127Z,99151.53
2022-10-22T17:57:24.976Z,99169.59
2022-10-22T17:59:51.794Z,99158.72
2022-10-22T18:02:18.869Z,99161.44
2022-10-22T18:04:45.788Z,99148.13
2022-10-22T18:07:13.448Z,99156.88
2022-10-22T18:09:40.602Z,99175.56
2022-10-22T18:12:07.801Z,99172.03
2022-10-22T18:14:34.716Z,99178.28
2022-10-22T18:17:02.584Z,99179.88
2022-10-22T18:19:29.473Z,99183.72
2022-10-22T18:21:56.300Z,99184.81
2022-10-22T18:24:23.163Z,99185.63
2022-10-22T18:26:50.031Z,99184.81
2022-10-22T18:29:18.086Z,99169.09
2022-10-22T18:31:45.303Z,99182.09
2022-10-22T18:34:12.190Z,99181.28
2022-10-22T18:36:39.018Z,99168.81
2022-10-22T18:39:05.912Z,99169.09
2022-10-22T18:41:33.258Z,99176.16
2022-10-22T18:44:01.614Z,99178.88
2022-10-22T18:46:29.046Z,99186.25
2022-10-22T18:48:56.754Z,99190.38
2022-10-22T18:51:24.235Z,99198.53
2022-10-22T18:54:04.558Z,99200.13
2022-10-22T18:56:39.893Z,99200.47
2022-10-22T18:59:06.729Z,99200.47
2022-10-22T19:01:35.556Z,99196.91
2022-10-22T19:04:02.467Z,99197.75
2022-10-22T19:06:34.509Z,99200.94
2022-10-22T19:09:03.998Z,99205.56
2022-10-22T19:11:30.877Z,99208.00
2022-10-22T19:13:58.244Z,99215.03
2022-10-22T19:16:26.699Z,99218.56
2022-10-22T19:18:59.124Z,99207.50
2022-10-22T19:21:26.034Z,99211.00
2022-10-22T19:23:58.041Z,99218.56
2022-10-22T19:26:26.505Z,99218.03
2022-10-22T19:28:54.153Z,99212.94
2022-10-22T19:31:23.123Z,99210.72
2022-10-22T19:33:50.926Z,99212.13
2022-10-22T19:36:18.412Z,99222.69
2022-10-22T19:38:46.628Z,99223.47
2022-10-22T19:41:14.388Z,99237.06
2022-10-22T19:43:41.928Z,99213.97
2022-10-22T19:46:08.849Z,99236.28
2022-10-22T19:48:36.274Z,99247.97
2022-10-22T19:51:05.245Z,99240.63
2022-10-22T19:53:32.783Z,99257.75
2022-10-22T19:55:59.832Z,99258.84
2022-10-22T19:58:27.526Z,99259.16
2022-10-22T20:00:54.503Z,99247.69
2022-10-22T20:03:21.702Z,99264.59
2022-10-22T20:05:50.071Z,99260.75
2022-10-22T20:08:16.913Z,99267.31
2022-10-22T20:10:43.813Z,99267.31
2022-10-22T20:13:10.643Z,99248.31
2022-10-22T20:15:37.662Z,99268.63
2022-10-22T20:18:04.765Z,99271.81
2022-10-22T20:20:31.599Z,99276.78
2022-10-22T20:22:58.443Z,99276.44
2022-10-22T20:25:25.315Z,99276.44
2022-10-22T20:27:52.124Z,99276.44
2022-10-22T20:30:20.157Z,99279.97
2022-10-22T20:32:48.293Z,99279.16
2022-10-22T20:35:15.426Z,99284.59
2022-10-22T20:37:42.235Z,99276.78
2022-10-22T20:40:09.598Z,99264.41
2022-10-22T20:42:36.427Z,99279.16
2022-10-22T20:45:03.292Z,99283.00
2022-10-22T20:47:39.307Z,99278.47
2022-10-22T20:50:17.018Z,99287.66
2022-10-22T20:52:43.906Z,99287.13
2022-10-22T20:55:10.760Z,99286.03
2022-10-22T20:57:37.619Z,99286.84
2022-10-22T21:00:04.838Z,99287.13
2022-10-22T21:02:31.693Z,99292.59
2022-10-22T21:04:58.500Z,99296.09
2022-10-22T21:07:25.463Z,99299.63
2022-10-22T21:09:52.335Z,99305.06
2022-10-22T21:12:19.141Z,99305.88
2022-10-22T21:14:46.823Z,99312.13
2022-10-22T21:17:14.021Z,99302.84
2022-10-22T21:19:40.845Z,99307.16
2022-10-22T21:22:07.693Z,99316.16
2022-10-22T21:24:34.529Z,99312.41
2022-10-22T21:27:02.556Z,99315.13
2022-10-22T21:29:29.392Z,99317.56
2022-10-22T21:31:56.224Z,99317.56
2022-10-22T21:34:23.097Z,99310.13
2022-10-22T21:36:49.997Z,99327.94
2022-10-22T21:39:16.814Z,99311.63
2022-10-22T21:41:43.640Z,99331.44
2022-10-22T21:44:10.586Z,99329.03
2022-10-22T21:46:37.458Z,99329.03
2022-10-22T21:49:04.438Z,99339.13
2022-10-22T21:51:33.100Z,99340.22
2022-10-22T21:54:00.163Z,99321.00
2022-10-22T21:56:28.950Z,99332.84
2022-10-22T21:58:55.954Z,99327.41
2022-10-22T22:01:22.960Z,99320.09
2022-10-22T22:03:49.952Z,99321.97
2022-10-22T22:06:21.168Z,99316.53
2022-10-22T22:08:49.143Z,99313.63
2022-10-22T22:11:18.423Z,99324.69
2022-10-22T22:13:45.442Z,99326.94
2022-10-22T22:16:13.679Z,99338.63
2022-10-22T22:18:40.764Z,99342.13
2022-10-22T22:21:15.231Z,99336.19
2022-10-22T22:23:43.695Z,99338.09
2022-10-22T22:26:10.557Z,99332.66
2022-10-22T22:28:37.397Z,99333.78
2022-10-22T22:31:24.786Z,99332.97
2022-10-22T22:33:52.413Z,99337.09
2022-10-22T22:36:19.266Z,99335.00
2022-10-22T22:38:46.109Z,99339.31
2022-10-22T22:41:12.952Z,99343.97
2022-10-22T22:43:39.756Z,99346.97
2022-10-22T22:46:09.792Z,99345.88
2022-10-22T22:48:36.664Z,99345.38
2022-10-22T22:51:07.388Z,99345.69
2022-10-22T22:53:34.743Z,99347.56
2022-10-22T22:56:09.798Z,99352.72
2022-10-22T22:58:37.196Z,99351.91
2022-10-22T23:01:09.996Z,99363.28
2022-10-22T23:03:36.961Z,99354.31
2022-10-22T23:06:03.849Z,99360.88
2022-10-22T23:08:30.749Z,99360.88
2022-10-22T23:11:11.507Z,99362.78
2022-10-22T23:13:39.033Z,99363.88
2022-10-22T23:16:07.519Z,99336.91
2022-10-22T23:18:35.251Z,99343.25
2022-10-22T23:21:06.489Z,99355.72
2022-10-22T23:23:36.101Z,99364.81
2022-10-22T23:26:02.948Z,99369.63
2022-10-22T23:28:29.859Z,99381.63
2022-10-22T23:30:56.685Z,99376.75
2022-10-22T23:33:23.514Z,99374.56
2022-10-22T23:35:50.326Z,99383.50
2022-10-22T23:38:17.247Z,99381.91
2022-10-22T23:40:44.058Z,99390.06
2022-10-22T23:43:10.871Z,99393.91
2022-10-22T23:45:37.726Z,99388.47
2022-10-22T23:48:04.706Z,99376.47
2022-10-22T23:50:31.635Z,99371.84
2022-10-22T23:52:58.518Z,99381.91
2022-10-22T23:55:25.550Z,99390.88
2022-10-22T23:57:52.449Z,99388.94
